createdAt,value
2023-03-05T00:01:26.837Z,84.43
2023-03-05T00:03:54.433Z,84.19
2023-03-05T00:06:21.858Z,84.11
2023-03-05T00:08:49.127Z,83.83
2023-03-05T00:11:16.578Z,83.98
2023-03-05T00:13:43.357Z,84.52
2023-03-05T00:16:11.651Z,84.97
2023-03-05T00:18:38.502Z,85.11
2023-03-05T00:21:05.959Z,84.95
2023-03-05T00:23:32.594Z,84.96
2023-03-05T00:26:02.091Z,85.12
2023-03-05T00:28:28.746Z,85.38
2023-03-05T00:30:55.520Z,85.54
2023-03-05T00:33:22.246Z,85.51
2023-03-05T00:35:48.857Z,85.55
2023-03-05T00:38:15.621Z,85.92
2023-03-05T00:40:42.346Z,86.13
2023-03-05T00:43:09.198Z,85.94
2023-03-05T00:45:35.983Z,85.81
2023-03-05T00:48:03.133Z,85.86
2023-03-05T00:50:29.833Z,85.81
2023-03-05T00:52:56.473Z,85.75
2023-03-05T00:55:23.088Z,85.71
2023-03-05T00:57:49.777Z,85.66
2023-03-05T01:00:16.453Z,85.86
2023-03-05T01:02:43.109Z,85.97
2023-03-05T01:05:13.472Z,85.70
2023-03-05T01:07:40.169Z,85.34
2023-03-05T01:10:07.752Z,85.19
2023-03-05T01:12:34.369Z,85.43
2023-03-05T01:15:01.008Z,85.72
2023-03-05T01:17:27.714Z,85.37
2023-03-05T01:19:54.374Z,84.90
2023-03-05T01:22:20.998Z,85.13
2023-03-05T01:24:47.654Z,85.16
2023-03-05T01:27:14.296Z,84.77
2023-03-05T01:29:40.947Z,85.14
2023-03-05T01:32:07.663Z,85.38
2023-03-05T01:34:35.991Z,86.00
2023-03-05T01:37:02.636Z,86.02
2023-03-05T01:39:29.255Z,85.82
2023-03-05T01:41:55.886Z,85.67
2023-03-05T01:44:24.113Z,85.58
2023-03-05T01:46:50.881Z,85.49
2023-03-05T01:49:30.274Z,85.67
2023-03-05T01:52:18.112Z,85.71
2023-03-05T01:54:44.753Z,85.59
2023-03-05T01:57:14.324Z,85.56
2023-03-05T01:59:41.460Z,85.57
2023-03-05T02:02:08.237Z,85.40
2023-03-05T02:04:42.704Z,85.31
2023-03-05T02:07:09.376Z,85.22
2023-03-05T02:09:38.864Z,85.01
2023-03-05T02:12:05.957Z,84.93
2023-03-05T02:14:32.971Z,84.79
2023-03-05T02:16:59.911Z,84.58
2023-03-05T02:19:26.754Z,84.61
2023-03-05T02:21:53.464Z,84.65
2023-03-05T02:24:34.878Z,84.74
2023-03-05T02:27:01.443Z,85.01
2023-03-05T02:29:28.091Z,85.36
2023-03-05T02:31:55.191Z,85.45
2023-03-05T02:34:22.832Z,85.59
2023-03-05T02:36:50.394Z,85.79
2023-03-05T02:39:17.495Z,85.95
2023-03-05T02:41:44.127Z,86.15
2023-03-05T02:44:10.887Z,86.26
2023-03-05T02:46:37.524Z,86.49
2023-03-05T02:49:04.244Z,86.35
2023-03-05T02:51:30.918Z,86.20
2023-03-05T02:53:57.596Z,86.04
2023-03-05T02:56:24.219Z,85.55
2023-03-05T02:58:50.870Z,85.45
2023-03-05T03:01:17.568Z,85.45
2023-03-05T03:03:44.179Z,85.90
2023-03-05T03:06:10.882Z,86.02
2023-03-05T03:08:37.579Z,86.17
2023-03-05T03:11:08.074Z,85.74
2023-03-05T03:13:34.893Z,85.03
2023-03-05T03:16:05.257Z,84.57
2023-03-05T03:18:31.964Z,84.62
2023-03-05T03:20:58.660Z,85.04
2023-03-05T03:23:25.574Z,85.12
2023-03-05T03:25:52.248Z,84.81
2023-03-05T03:28:18.936Z,84.64
2023-03-05T03:30:45.650Z,84.53
2023-03-05T03:33:12.399Z,84.46
2023-03-05T03:35:39.167Z,84.46
2023-03-05T03:38:05.826Z,84.38
2023-03-05T03:40:32.452Z,84.46
2023-03-05T03:42:59.118Z,84.57
2023-03-05T03:45:25.780Z,84.65
2023-03-05T03:47:52.434Z,84.76
2023-03-05T03:50:19.149Z,84.88
2023-03-05T03:52:45.792Z,84.99
2023-03-05T03:55:12.453Z,84.81
2023-03-05T03:57:39.144Z,84.70
2023-03-05T04:00:11.177Z,84.42
2023-03-05T04:02:37.977Z,84.38
2023-03-05T04:05:05.002Z,84.43
2023-03-05T04:07:31.616Z,84.77
2023-03-05T04:09:58.322Z,85.15
2023-03-05T04:12:25.041Z,85.56
2023-03-05T04:14:51.764Z,85.23
2023-03-05T04:17:18.379Z,84.91
2023-03-05T04:19:45.115Z,84.57
2023-03-05T04:25:52.542Z,84.27
2023-03-05T04:28:19.297Z,84.73
2023-03-05T04:30:46.123Z,85.00
2023-03-05T04:33:12.908Z,85.23
2023-03-05T04:35:39.586Z,85.18
2023-03-05T04:38:06.218Z,85.10
2023-03-05T04:40:33.073Z,84.98
2023-03-05T04:42:59.681Z,84.98
2023-03-05T04:45:26.414Z,84.94
2023-03-05T04:47:53.088Z,85.40
2023-03-05T04:50:19.933Z,85.42
2023-03-05T04:52:46.650Z,84.67
2023-03-05T04:55:14.926Z,84.51
2023-03-05T04:57:41.575Z,84.42
2023-03-05T05:00:15.706Z,84.41
2023-03-05T05:02:46.642Z,84.60
2023-03-05T05:05:17.672Z,84.74
2023-03-05T05:07:44.780Z,84.93
2023-03-05T05:10:11.984Z,85.11
2023-03-05T05:12:38.668Z,85.20
2023-03-05T05:15:05.796Z,85.02
2023-03-05T05:17:33.135Z,84.97
2023-03-05T05:20:00.624Z,85.00
2023-03-05T05:22:28.414Z,85.12
2023-03-05T05:24:55.670Z,85.19
2023-03-05T05:27:22.450Z,85.22
2023-03-05T05:29:50.438Z,85.27
2023-03-05T05:32:21.016Z,85.06
2023-03-05T05:34:48.513Z,84.51
2023-03-05T05:37:15.220Z,83.69
2023-03-05T05:39:41.874Z,82.45
2023-03-05T05:42:08.617Z,80.24
2023-03-05T05:44:35.460Z,78.54
2023-03-05T05:47:02.112Z,77.02
2023-03-05T05:49:28.815Z,75.58
2023-03-05T05:51:55.433Z,74.80
2023-03-05T05:54:22.032Z,74.21
2023-03-05T05:56:48.683Z,73.24
2023-03-05T05:59:15.308Z,70.97
2023-03-05T06:01:41.936Z,68.96
2023-03-05T06:04:08.637Z,67.44
2023-03-05T06:06:35.368Z,65.75
2023-03-05T06:09:02.073Z,64.22
2023-03-05T06:11:28.773Z,63.02
2023-03-05T06:13:55.483Z,59.28
2023-03-05T06:16:24.154Z,59.11
2023-03-05T06:18:53.940Z,60.54
2023-03-05T06:21:20.991Z,60.69
2023-03-05T06:23:48.007Z,61.38
2023-03-05T06:26:16.409Z,61.06
2023-03-05T06:28:43.091Z,59.58
2023-03-05T06:31:17.409Z,57.01
2023-03-05T06:33:44.175Z,58.24
2023-03-05T06:36:15.258Z,59.78
2023-03-05T06:38:41.908Z,60.49
2023-03-05T06:41:11.588Z,62.17
2023-03-05T06:43:42.546Z,64.03
2023-03-05T06:46:11.175Z,65.18
2023-03-05T06:48:37.840Z,65.20
2023-03-05T06:51:04.623Z,68.31
2023-03-05T06:53:31.374Z,68.00
2023-03-05T06:56:00.674Z,68.18
2023-03-05T06:58:27.273Z,68.49
2023-03-05T07:00:53.878Z,67.31
2023-03-05T07:03:20.498Z,67.78
2023-03-05T07:05:47.200Z,68.74
2023-03-05T07:08:13.853Z,68.37
2023-03-05T07:10:41.379Z,69.19
2023-03-05T07:13:08.477Z,69.19
2023-03-05T07:15:37.197Z,70.48
2023-03-05T07:18:03.961Z,70.36
2023-03-05T07:20:30.630Z,69.68
2023-03-05T07:22:57.299Z,68.98
2023-03-05T07:25:24.569Z,68.68
2023-03-05T07:27:51.680Z,69.54
2023-03-05T07:30:18.602Z,68.50
2023-03-05T07:32:45.198Z,68.91
2023-03-05T07:35:11.879Z,65.44
2023-03-05T07:37:38.611Z,62.78
2023-03-05T07:40:06.516Z,59.34
2023-03-05T07:42:34.001Z,55.36
2023-03-05T07:45:00.680Z,54.26
2023-03-05T07:47:27.460Z,52.17
2023-03-05T07:49:54.122Z,50.46
2023-03-05T07:52:20.733Z,50.29
2023-03-05T07:54:47.394Z,47.59
2023-03-05T07:57:14.073Z,47.36
2023-03-05T07:59:40.699Z,46.16
2023-03-05T08:02:07.518Z,45.00
2023-03-05T08:04:34.202Z,44.26
2023-03-05T08:07:00.853Z,43.79
2023-03-05T08:09:28.220Z,43.30
2023-03-05T08:11:54.910Z,44.86
2023-03-05T08:14:21.507Z,43.81
2023-03-05T08:16:52.157Z,45.29
2023-03-05T08:19:19.636Z,46.13
2023-03-05T08:21:46.356Z,47.66
2023-03-05T08:24:13.279Z,49.24
2023-03-05T08:26:40.467Z,51.40
2023-03-05T08:29:07.950Z,52.52
2023-03-05T08:31:35.020Z,54.28
2023-03-05T08:34:02.016Z,54.66
2023-03-05T08:36:29.103Z,55.97
2023-03-05T08:38:56.280Z,57.09
2023-03-05T08:41:23.104Z,56.14
2023-03-05T08:43:49.824Z,54.21
2023-03-05T08:46:19.025Z,55.18
2023-03-05T08:48:45.720Z,53.74
2023-03-05T08:51:14.340Z,49.55
2023-03-05T08:53:41.162Z,47.46
2023-03-05T08:56:08.230Z,46.10
2023-03-05T08:58:34.894Z,45.96
2023-03-05T09:01:01.572Z,44.68
2023-03-05T09:03:28.238Z,48.47
2023-03-05T09:06:01.859Z,46.25
2023-03-05T09:08:29.157Z,50.48
2023-03-05T09:10:56.367Z,49.94
2023-03-05T09:13:23.079Z,52.98
2023-03-05T09:16:00.468Z,53.74
2023-03-05T09:18:27.286Z,55.67
2023-03-05T09:20:54.019Z,57.26
2023-03-05T09:23:20.658Z,58.86
2023-03-05T09:25:47.396Z,60.52
2023-03-05T09:28:14.052Z,62.62
2023-03-05T09:30:40.794Z,65.72
2023-03-05T09:33:07.416Z,65.76
2023-03-05T09:35:37.089Z,67.54
2023-03-05T09:38:04.104Z,69.48
2023-03-05T09:40:37.588Z,70.49
2023-03-05T09:43:41.654Z,70.86
2023-03-05T09:46:39.113Z,72.07
2023-03-05T09:49:35.124Z,72.57
2023-03-05T09:52:18.804Z,73.60
2023-03-05T09:54:46.104Z,73.32
2023-03-05T09:57:18.694Z,73.48
2023-03-05T09:59:56.292Z,73.46
2023-03-05T10:02:53.870Z,74.27
2023-03-05T10:05:39.952Z,75.25
2023-03-05T10:08:06.624Z,73.51
2023-03-05T10:10:39.361Z,73.56
2023-03-05T10:13:34.160Z,73.36
2023-03-05T10:16:22.757Z,74.59
2023-03-05T10:19:08.082Z,74.72
2023-03-05T10:21:40.761Z,74.77
2023-03-05T10:24:27.791Z,74.36
2023-03-05T10:27:09.422Z,75.76
2023-03-05T10:29:51.220Z,76.49
2023-03-05T10:32:35.809Z,77.25
2023-03-05T10:35:18.105Z,76.96
2023-03-05T10:38:10.377Z,77.78
2023-03-05T10:40:47.112Z,78.12
2023-03-05T10:43:28.946Z,79.58
2023-03-05T10:45:55.642Z,77.62
2023-03-05T10:48:55.675Z,76.27
2023-03-05T10:51:31.306Z,76.13
2023-03-05T10:54:20.809Z,73.31
2023-03-05T10:56:47.400Z,72.41
2023-03-05T10:59:13.997Z,73.14
2023-03-05T11:01:40.822Z,72.78
2023-03-05T11:04:08.460Z,73.18
2023-03-05T11:06:35.108Z,72.50
2023-03-05T11:09:27.928Z,71.98
2023-03-05T11:12:16.422Z,73.77
2023-03-05T11:14:45.279Z,71.67
2023-03-05T11:17:31.789Z,72.50
2023-03-05T11:19:58.871Z,73.07
2023-03-05T11:22:25.726Z,73.60
2023-03-05T11:25:16.569Z,74.77
2023-03-05T11:27:53.644Z,74.26
2023-03-05T11:30:32.066Z,73.51
2023-03-05T11:33:20.987Z,71.85
2023-03-05T11:35:47.985Z,74.22
2023-03-05T11:38:24.559Z,73.91
2023-03-05T11:40:52.324Z,74.33
2023-03-05T11:43:20.693Z,75.60
2023-03-05T11:46:02.492Z,75.60
2023-03-05T11:48:37.286Z,74.80
2023-03-05T11:51:21.778Z,74.03
2023-03-05T11:53:51.140Z,73.47
2023-03-05T11:56:36.832Z,74.40
2023-03-05T11:59:12.581Z,74.23
2023-03-05T12:01:47.956Z,75.76
2023-03-05T12:04:15.475Z,76.62
2023-03-05T12:07:03.490Z,76.40
2023-03-05T12:09:51.869Z,78.05
2023-03-05T12:12:23.945Z,79.35
2023-03-05T12:15:26.033Z,80.78
2023-03-05T12:18:04.512Z,80.97
2023-03-05T12:20:41.997Z,80.44
2023-03-05T12:23:16.791Z,80.12
2023-03-05T12:25:51.374Z,81.21
2023-03-05T12:28:45.941Z,81.28
2023-03-05T12:31:29.139Z,81.55
2023-03-05T12:33:55.828Z,81.48
2023-03-05T12:36:22.511Z,82.05
2023-03-05T12:38:56.225Z,82.58
2023-03-05T12:41:22.765Z,83.23
2023-03-05T12:44:19.561Z,81.71
2023-03-05T12:47:06.590Z,82.57
2023-03-05T12:49:39.748Z,82.91
2023-03-05T12:52:15.386Z,82.95
2023-03-05T12:54:42.147Z,83.16
2023-03-05T12:57:18.877Z,83.72
2023-03-05T12:59:50.541Z,84.09
2023-03-05T13:02:27.527Z,84.19
2023-03-05T13:04:57.984Z,82.40
2023-03-05T13:07:24.637Z,82.38
2023-03-05T13:09:52.949Z,82.22
2023-03-05T13:12:19.600Z,81.51
2023-03-05T13:14:47.360Z,80.91
2023-03-05T13:17:38.161Z,80.31
2023-03-05T13:20:29.939Z,79.92
2023-03-05T13:23:18.462Z,80.10
2023-03-05T13:25:45.426Z,80.62
2023-03-05T13:28:16.319Z,81.17
2023-03-05T13:30:54.259Z,81.71
2023-03-05T13:33:28.381Z,81.86
2023-03-05T13:35:55.092Z,81.50
2023-03-05T13:38:39.121Z,81.52
2023-03-05T13:41:08.787Z,81.26
2023-03-05T13:43:42.732Z,80.87
2023-03-05T13:46:09.551Z,80.61
2023-03-05T13:48:37.622Z,80.88
2023-03-05T13:51:08.651Z,81.13
2023-03-05T13:53:35.422Z,81.64
2023-03-05T13:56:07.497Z,81.94
2023-03-05T13:58:52.973Z,81.64
2023-03-05T14:01:32.491Z,81.11
2023-03-05T14:04:05.498Z,81.04
2023-03-05T14:06:32.173Z,81.41
2023-03-05T14:09:06.637Z,81.30
2023-03-05T14:11:33.812Z,79.74
2023-03-05T14:14:05.619Z,80.47
2023-03-05T14:16:33.767Z,81.14
2023-03-05T14:19:01.736Z,80.61
2023-03-05T14:21:45.022Z,80.48
2023-03-05T14:24:13.420Z,81.43
2023-03-05T14:26:51.232Z,81.13
2023-03-05T14:29:18.698Z,81.11
2023-03-05T14:31:50.962Z,81.32
2023-03-05T14:34:31.454Z,81.10
2023-03-05T14:37:00.066Z,80.67
2023-03-05T14:39:27.344Z,80.71
2023-03-05T14:41:54.038Z,81.06
2023-03-05T14:44:25.356Z,81.42
2023-03-05T14:46:52.069Z,81.37
2023-03-05T14:49:18.799Z,81.92
2023-03-05T14:51:45.611Z,81.34
2023-03-05T14:54:22.801Z,81.56
2023-03-05T14:56:49.839Z,81.75
2023-03-05T14:59:17.969Z,81.82
2023-03-05T15:01:45.083Z,82.20
2023-03-05T15:04:11.846Z,82.56
2023-03-05T15:06:39.817Z,83.07
2023-03-05T15:09:06.571Z,82.75
2023-03-05T15:11:33.424Z,82.77
2023-03-05T15:14:00.185Z,83.03
2023-03-05T15:16:26.846Z,83.15
2023-03-05T15:18:53.566Z,83.68
2023-03-05T15:21:20.211Z,84.06
2023-03-05T15:23:46.925Z,84.15
2023-03-05T15:26:14.485Z,83.99
2023-03-05T15:28:41.161Z,83.94
2023-03-05T15:31:08.219Z,83.89
2023-03-05T15:33:34.993Z,83.67
2023-03-05T15:36:01.660Z,83.23
2023-03-05T15:38:28.357Z,83.45
2023-03-05T15:40:55.008Z,83.64
2023-03-05T15:43:21.636Z,83.70
2023-03-05T15:45:48.332Z,83.94
2023-03-05T15:48:15.050Z,84.07
2023-03-05T15:50:43.145Z,84.25
2023-03-05T15:53:10.909Z,84.26
2023-03-05T15:55:39.314Z,84.41
2023-03-05T15:58:05.920Z,84.66
2023-03-05T16:00:32.858Z,84.84
2023-03-05T16:02:59.597Z,84.97
2023-03-05T16:05:26.260Z,85.26
2023-03-05T16:07:52.952Z,85.09
2023-03-05T16:10:21.841Z,84.91
2023-03-05T16:12:48.847Z,84.76
2023-03-05T16:15:17.130Z,84.69
2023-03-05T16:17:45.291Z,84.23
2023-03-05T16:20:12.611Z,84.29
2023-03-05T16:22:39.218Z,84.60
2023-03-05T16:25:06.076Z,84.80
2023-03-05T16:27:32.758Z,84.81
2023-03-05T16:29:59.619Z,84.94
2023-03-05T16:32:26.432Z,84.80
2023-03-05T16:34:53.111Z,84.49
2023-03-05T16:37:21.341Z,84.51
2023-03-05T16:39:48.043Z,84.69
2023-03-05T16:42:14.909Z,84.97
2023-03-05T16:44:41.887Z,85.07
2023-03-05T16:47:09.363Z,84.99
2023-03-05T16:49:36.679Z,85.05
2023-03-05T16:52:17.758Z,85.20
2023-03-05T16:54:45.398Z,84.97
2023-03-05T16:57:12.069Z,84.67
2023-03-05T16:59:38.728Z,84.57
2023-03-05T17:02:05.389Z,84.79
2023-03-05T17:04:32.308Z,84.57
2023-03-05T17:06:58.917Z,84.51
2023-03-05T17:09:25.560Z,84.46
2023-03-05T17:11:52.856Z,84.34
2023-03-05T17:14:19.720Z,84.55
2023-03-05T17:16:46.685Z,84.73
2023-03-05T17:19:13.364Z,84.86
2023-03-05T17:21:42.209Z,85.09
2023-03-05T17:24:10.019Z,85.35
2023-03-05T17:26:36.730Z,85.53
2023-03-05T17:29:04.456Z,85.37
2023-03-05T17:31:31.459Z,85.05
2023-03-05T17:33:58.194Z,84.86
2023-03-05T17:36:25.119Z,84.70
2023-03-05T17:38:51.875Z,84.49
2023-03-05T17:41:18.628Z,84.49
2023-03-05T17:43:45.242Z,84.79
2023-03-05T17:46:12.041Z,84.84
2023-03-05T17:48:39.391Z,84.90
2023-03-05T17:51:10.512Z,85.01
2023-03-05T17:53:38.919Z,85.28
2023-03-05T17:56:09.673Z,85.42
2023-03-05T17:58:36.507Z,84.97
2023-03-05T18:01:03.646Z,84.52
2023-03-05T18:03:30.386Z,84.36
2023-03-05T18:05:57.137Z,84.54
2023-03-05T18:08:23.772Z,84.85
2023-03-05T18:10:50.427Z,85.11
2023-03-05T18:13:17.050Z,85.09
2023-03-05T18:15:47.685Z,84.69
2023-03-05T18:18:15.660Z,84.62
2023-03-05T18:20:42.397Z,84.54
2023-03-05T18:23:09.082Z,84.58
2023-03-05T18:25:35.802Z,84.40
2023-03-05T18:28:04.629Z,84.39
2023-03-05T18:30:31.457Z,84.43
2023-03-05T18:32:58.273Z,84.34
2023-03-05T18:35:25.096Z,84.29
2023-03-05T18:37:51.771Z,84.36
2023-03-05T18:40:20.460Z,84.57
2023-03-05T18:42:47.139Z,84.60
2023-03-05T18:45:15.010Z,84.41
2023-03-05T18:47:44.742Z,84.28
2023-03-05T18:50:14.684Z,84.13
2023-03-05T18:52:42.314Z,84.25
2023-03-05T18:55:12.557Z,84.41
2023-03-05T18:57:39.201Z,84.41
2023-03-05T19:00:06.861Z,84.52
2023-03-05T19:02:34.599Z,84.60
2023-03-05T19:05:01.240Z,84.68
2023-03-05T19:07:27.989Z,84.82
2023-03-05T19:09:59.540Z,84.65
2023-03-05T19:12:30.997Z,84.54
2023-03-05T19:14:59.373Z,84.59
2023-03-05T19:17:26.035Z,84.69
2023-03-05T19:19:53.079Z,84.73
2023-03-05T19:22:21.932Z,84.65
2023-03-05T19:24:48.554Z,84.92
2023-03-05T19:27:15.282Z,85.02
2023-03-05T19:29:42.173Z,85.43
2023-03-05T19:32:10.641Z,85.79
2023-03-05T19:34:37.335Z,86.02
2023-03-05T19:37:04.275Z,85.79
2023-03-05T19:39:31.267Z,85.76
2023-03-05T19:41:57.924Z,85.74
2023-03-05T19:44:24.590Z,85.74
2023-03-05T19:46:51.282Z,85.82
2023-03-05T19:49:18.261Z,85.79
2023-03-05T19:51:45.167Z,85.69
2023-03-05T19:54:13.118Z,85.83
2023-03-05T19:56:40.321Z,86.08
2023-03-05T19:59:07.140Z,86.03
2023-03-05T20:01:33.983Z,86.01
2023-03-05T20:04:01.519Z,85.89
2023-03-05T20:06:28.857Z,85.69
2023-03-05T20:08:55.829Z,85.48
2023-03-05T20:11:22.680Z,85.66
2023-03-05T20:13:49.795Z,85.94
2023-03-05T20:16:20.434Z,85.84
2023-03-05T20:18:47.791Z,85.71
2023-03-05T20:21:21.512Z,85.61
2023-03-05T20:23:48.393Z,85.47
2023-03-05T20:26:15.062Z,85.63
2023-03-05T20:28:41.762Z,85.65
2023-03-05T20:31:08.361Z,85.60
2023-03-05T20:33:35.078Z,85.54
2023-03-05T20:36:01.828Z,85.38
2023-03-05T20:38:31.778Z,85.49
2023-03-05T20:41:02.865Z,85.60
2023-03-05T20:43:34.087Z,85.68
2023-03-05T20:46:00.804Z,85.84
2023-03-05T20:48:28.872Z,85.75
2023-03-05T20:50:55.647Z,85.78
2023-03-05T20:53:22.686Z,85.88
2023-03-05T20:55:49.513Z,85.89
2023-03-05T20:58:16.173Z,85.83
2023-03-05T21:00:42.957Z,85.97
2023-03-05T21:03:09.952Z,86.17
2023-03-05T21:05:36.781Z,86.28
2023-03-05T21:08:04.377Z,86.14
2023-03-05T21:10:31.385Z,86.15
2023-03-05T21:13:00.382Z,86.39
2023-03-05T21:15:29.223Z,86.77
2023-03-05T21:17:55.887Z,87.13
2023-03-05T21:20:27.070Z,87.01
2023-03-05T21:22:54.616Z,86.85
2023-03-05T21:25:30.986Z,86.65
2023-03-05T21:28:02.874Z,86.61
2023-03-05T21:30:31.593Z,86.49
2023-03-05T21:33:02.149Z,86.53
2023-03-05T21:35:29.092Z,86.51
2023-03-05T21:37:55.781Z,86.53
2023-03-05T21:40:22.484Z,86.41
2023-03-05T21:42:49.310Z,86.32
2023-03-05T21:45:18.038Z,86.33
2023-03-05T21:47:44.686Z,86.23
2023-03-05T21:50:12.846Z,86.22
2023-03-05T21:52:39.517Z,86.20
2023-03-05T21:55:06.392Z,86.02
2023-03-05T21:57:33.053Z,85.66
2023-03-05T21:59:59.759Z,85.57
2023-03-05T22:02:26.428Z,85.50
2023-03-05T22:04:53.080Z,85.37
2023-03-05T22:07:19.778Z,85.43
2023-03-05T22:09:46.462Z,85.53
2023-03-05T22:12:41.782Z,85.54
2023-03-05T22:15:09.171Z,85.27
2023-03-05T22:17:35.844Z,85.18
2023-03-05T22:20:02.520Z,85.20
2023-03-05T22:22:29.163Z,85.32
2023-03-05T22:24:55.774Z,85.67
2023-03-05T22:27:22.449Z,85.70
2023-03-05T22:29:49.126Z,85.77
2023-03-05T22:32:15.798Z,85.70
2023-03-05T22:34:42.470Z,85.52
2023-03-05T22:37:09.089Z,85.37
2023-03-05T22:39:35.697Z,85.35
2023-03-05T22:42:02.385Z,85.50
2023-03-05T22:44:29.082Z,85.45
2023-03-05T22:46:55.710Z,85.53
2023-03-05T22:49:22.380Z,85.60
2023-03-05T22:51:49.046Z,85.75
2023-03-05T22:54:15.739Z,85.61
2023-03-05T22:56:42.378Z,85.44
2023-03-05T22:59:08.972Z,85.04
2023-03-05T23:01:35.584Z,84.72
2023-03-05T23:04:39.479Z,84.53
2023-03-05T23:07:06.736Z,84.34
2023-03-05T23:09:33.416Z,84.03
2023-03-05T23:12:00.103Z,83.97
2023-03-05T23:14:26.733Z,84.11
2023-03-05T23:16:53.370Z,84.31
2023-03-05T23:19:19.987Z,83.98
2023-03-05T23:21:46.673Z,83.83
2023-03-05T23:24:13.315Z,83.82
2023-03-05T23:26:39.960Z,84.05
2023-03-05T23:29:06.611Z,84.23
2023-03-05T23:31:33.305Z,84.14
2023-03-05T23:34:00.027Z,84.13
2023-03-05T23:36:26.762Z,84.26
2023-03-05T23:38:57.531Z,84.16
2023-03-05T23:41:24.290Z,83.88
2023-03-05T23:43:50.902Z,84.16
2023-03-05T23:46:17.670Z,84.28
2023-03-05T23:48:44.407Z,84.26
2023-03-05T23:51:11.238Z,84.37
2023-03-05T23:53:40.934Z,84.51
2023-03-05T23:56:11.234Z,84.44
2023-03-05T23:58:38.093Z,84.62
